BAW350 EGLL-EGCC
Flight info
| Callsign | BAW350 |
|---|---|
| Flight time | 0h 38m |
| Altitude | 16000 |
| Route | UMLAT T418 WELIN T420 ELVOS |
| Aircraft | A320/M-SDE3FGHIRWY/LB1 |
Departure
| Time | 2026-05-04 10:13 |
|---|---|
| Airport | London Heathrow Airport (EGLL) |
Arrival
| Time | 2026-05-04 10:52 |
|---|---|
| Airport | Manchester Airport (EGCC) |
| Time | Latitude | Longitude | Altitude | Speed | Heading |
|---|---|---|---|---|---|
| 2026-05-04 09:40 | 51.46983 | -0.47708 | 87 ft | 0 kts | 90° |
| 2026-05-04 10:04 | 51.46987 | -0.47857 | 90 ft | 2 kts | 123° |
| 2026-05-04 10:04 | 51.46994 | -0.47870 | 90 ft | 2 kts | 172° |
| 2026-05-04 10:04 | 51.47005 | -0.47872 | 88 ft | 2 kts | 179° |
| 2026-05-04 10:04 | 51.47008 | -0.47872 | 87 ft | 0 kts | 181° |
| 2026-05-04 10:06 | 51.47007 | -0.47872 | 87 ft | 1 kts | 181° |
| 2026-05-04 10:08 | 51.46654 | -0.47766 | 87 ft | 8 kts | 87° |
| 2026-05-04 10:08 | 51.46654 | -0.47664 | 87 ft | 14 kts | 90° |
| 2026-05-04 10:08 | 51.46655 | -0.47411 | 87 ft | 27 kts | 89° |
| 2026-05-04 10:08 | 51.46656 | -0.47207 | 87 ft | 27 kts | 90° |
| 2026-05-04 10:09 | 51.46657 | -0.46966 | 89 ft | 20 kts | 89° |
| 2026-05-04 10:09 | 51.46657 | -0.46731 | 90 ft | 22 kts | 89° |
| 2026-05-04 10:09 | 51.46658 | -0.46477 | 91 ft | 24 kts | 90° |
| 2026-05-04 10:09 | 51.46659 | -0.46209 | 89 ft | 25 kts | 90° |
| 2026-05-04 10:10 | 51.46659 | -0.45988 | 88 ft | 13 kts | 96° |
| 2026-05-04 10:10 | 51.46626 | -0.45931 | 90 ft | 0 kts | 147° |
| 2026-05-04 10:11 | 51.46595 | -0.45900 | 88 ft | 12 kts | 147° |
| 2026-05-04 10:11 | 51.46529 | -0.45827 | 89 ft | 11 kts | 144° |
| 2026-05-04 10:11 | 51.46487 | -0.45843 | 90 ft | 7 kts | 246° |
| 2026-05-04 10:12 | 51.46485 | -0.45871 | 88 ft | 0 kts | 270° |
| 2026-05-04 10:12 | 51.46485 | -0.45873 | 88 ft | 2 kts | 270° |
| 2026-05-04 10:12 | 51.46484 | -0.46201 | 90 ft | 68 kts | 271° |
| 2026-05-04 10:13 | 51.46482 | -0.47336 | 87 ft | 133 kts | 270° |
| 2026-05-04 10:13 | 51.46475 | -0.48951 | 476 ft | 152 kts | 271° |
| 2026-05-04 10:13 | 51.46516 | -0.50703 | 1196 ft | 157 kts | 285° |
| 2026-05-04 10:13 | 51.46957 | -0.52300 | 1955 ft | 157 kts | 299° |
| 2026-05-04 10:14 | 51.47463 | -0.53849 | 2697 ft | 156 kts | 298° |
| 2026-05-04 10:14 | 51.47953 | -0.55368 | 3381 ft | 156 kts | 297° |
| 2026-05-04 10:16 | 51.54362 | -0.68727 | 7046 ft | 280 kts | 359° |
| 2026-05-04 10:16 | 51.56316 | -0.68405 | 7961 ft | 285 kts | 7° |
| 2026-05-04 10:16 | 51.58306 | -0.68191 | 8846 ft | 289 kts | 359° |
| 2026-05-04 10:16 | 51.60331 | -0.68323 | 9769 ft | 293 kts | 354° |
| 2026-05-04 10:17 | 51.62376 | -0.68605 | 10387 ft | 309 kts | 353° |
| 2026-05-04 10:17 | 51.64597 | -0.68960 | 10707 ft | 333 kts | 353° |
| 2026-05-04 10:19 | 51.81888 | -0.71073 | 15717 ft | 372 kts | 355° |
| 2026-05-04 10:19 | 51.84478 | -0.71354 | 15964 ft | 373 kts | 355° |
| 2026-05-04 10:19 | 51.87084 | -0.71642 | 16043 ft | 377 kts | 355° |
| 2026-05-04 10:19 | 51.89713 | -0.71939 | 16049 ft | 379 kts | 355° |
| 2026-05-04 10:20 | 51.92347 | -0.72240 | 16052 ft | 379 kts | 355° |
| 2026-05-04 10:20 | 51.94976 | -0.72541 | 16053 ft | 379 kts | 355° |
| 2026-05-04 10:20 | 51.97609 | -0.72843 | 16056 ft | 379 kts | 355° |
| 2026-05-04 10:20 | 52.00237 | -0.73142 | 16056 ft | 379 kts | 354° |
| 2026-05-04 10:21 | 52.02830 | -0.73818 | 16057 ft | 377 kts | 344° |
| 2026-05-04 10:21 | 52.05336 | -0.75079 | 16057 ft | 377 kts | 341° |
| 2026-05-04 10:21 | 52.07828 | -0.76385 | 16059 ft | 376 kts | 341° |
| 2026-05-04 10:21 | 52.10319 | -0.77691 | 16060 ft | 376 kts | 341° |
| 2026-05-04 10:22 | 52.15314 | -0.80296 | 16059 ft | 376 kts | 341° |
| 2026-05-04 10:22 | 52.17810 | -0.81596 | 16059 ft | 377 kts | 341° |
| 2026-05-04 10:22 | 52.20275 | -0.82886 | 16057 ft | 376 kts | 341° |
| 2026-05-04 10:23 | 52.22768 | -0.84195 | 16058 ft | 376 kts | 341° |
| 2026-05-04 10:23 | 52.25196 | -0.85764 | 16056 ft | 375 kts | 331° |
| 2026-05-04 10:25 | 52.40772 | -1.01207 | 16062 ft | 374 kts | 327° |
| 2026-05-04 10:25 | 52.42997 | -1.03433 | 16058 ft | 374 kts | 327° |
| 2026-05-04 10:25 | 52.45219 | -1.05665 | 16057 ft | 374 kts | 327° |
| 2026-05-04 10:25 | 52.47402 | -1.07857 | 16055 ft | 374 kts | 327° |
| 2026-05-04 10:26 | 52.49626 | -1.10084 | 16053 ft | 374 kts | 327° |
| 2026-05-04 10:26 | 52.51842 | -1.12307 | 16052 ft | 374 kts | 327° |
| 2026-05-04 10:26 | 52.54060 | -1.14539 | 16054 ft | 374 kts | 327° |
| 2026-05-04 10:26 | 52.56275 | -1.16772 | 16050 ft | 374 kts | 327° |
| 2026-05-04 10:27 | 52.58519 | -1.19036 | 16047 ft | 374 kts | 327° |
| 2026-05-04 10:27 | 52.60732 | -1.21266 | 16045 ft | 374 kts | 327° |
| 2026-05-04 10:27 | 52.62922 | -1.23480 | 16046 ft | 373 kts | 327° |
| 2026-05-04 10:27 | 52.65131 | -1.25722 | 16045 ft | 373 kts | 326° |
| 2026-05-04 10:28 | 52.67345 | -1.27975 | 16044 ft | 373 kts | 327° |
| 2026-05-04 10:28 | 52.69554 | -1.30218 | 16044 ft | 373 kts | 327° |
| 2026-05-04 10:28 | 52.71769 | -1.32467 | 16048 ft | 373 kts | 327° |
| 2026-05-04 10:28 | 52.73983 | -1.34717 | 16103 ft | 373 kts | 327° |
| 2026-05-04 10:29 | 52.76189 | -1.36962 | 16102 ft | 373 kts | 327° |
| 2026-05-04 10:29 | 52.78401 | -1.39217 | 16103 ft | 373 kts | 327° |
| 2026-05-04 10:29 | 52.80608 | -1.41469 | 16103 ft | 373 kts | 327° |
| 2026-05-04 10:29 | 52.82816 | -1.43731 | 16101 ft | 373 kts | 327° |
| 2026-05-04 10:30 | 52.85000 | -1.45967 | 15905 ft | 365 kts | 327° |
| 2026-05-04 10:30 | 52.87135 | -1.48148 | 15661 ft | 356 kts | 327° |
| 2026-05-04 10:30 | 52.89216 | -1.50279 | 15422 ft | 350 kts | 327° |
| 2026-05-04 10:30 | 52.91275 | -1.52393 | 15162 ft | 347 kts | 326° |
| 2026-05-04 10:31 | 52.93322 | -1.54498 | 14913 ft | 345 kts | 327° |
| 2026-05-04 10:31 | 52.95358 | -1.56599 | 14671 ft | 344 kts | 327° |
| 2026-05-04 10:32 | 53.06881 | -1.69852 | 12278 ft | 327 kts | 308° |
| 2026-05-04 10:33 | 53.08329 | -1.72687 | 12147 ft | 316 kts | 309° |
| 2026-05-04 10:33 | 53.09715 | -1.75380 | 12019 ft | 305 kts | 309° |
| 2026-05-04 10:33 | 53.11082 | -1.78021 | 11813 ft | 298 kts | 309° |
| 2026-05-04 10:33 | 53.12439 | -1.80644 | 11452 ft | 297 kts | 309° |
| 2026-05-04 10:34 | 53.13779 | -1.83239 | 11145 ft | 294 kts | 309° |
| 2026-05-04 10:34 | 53.15113 | -1.85827 | 10789 ft | 293 kts | 309° |
| 2026-05-04 10:34 | 53.16437 | -1.88401 | 10442 ft | 292 kts | 309° |
| 2026-05-04 10:34 | 53.17753 | -1.90966 | 10112 ft | 290 kts | 309° |
| 2026-05-04 10:35 | 53.19055 | -1.93511 | 9762 ft | 288 kts | 309° |
| 2026-05-04 10:35 | 53.20354 | -1.96045 | 9380 ft | 286 kts | 309° |
| 2026-05-04 10:35 | 53.21629 | -1.98528 | 9212 ft | 277 kts | 309° |
| 2026-05-04 10:35 | 53.22791 | -2.01047 | 8833 ft | 274 kts | 296° |
| 2026-05-04 10:36 | 53.23251 | -2.04088 | 8524 ft | 268 kts | 271° |
| 2026-05-04 10:36 | 53.23208 | -2.07091 | 8392 ft | 257 kts | 267° |
| 2026-05-04 10:36 | 53.23110 | -2.10012 | 8263 ft | 247 kts | 266° |
| 2026-05-04 10:36 | 53.23009 | -2.12816 | 8136 ft | 237 kts | 266° |
| 2026-05-04 10:37 | 53.22907 | -2.15509 | 7989 ft | 228 kts | 266° |
| 2026-05-04 10:37 | 53.22804 | -2.18132 | 7722 ft | 225 kts | 266° |
| 2026-05-04 10:37 | 53.22698 | -2.20729 | 7413 ft | 224 kts | 266° |
| 2026-05-04 10:37 | 53.22587 | -2.23325 | 7108 ft | 224 kts | 266° |
| 2026-05-04 10:39 | 53.21818 | -2.38743 | 5278 ft | 220 kts | 266° |
| 2026-05-04 10:39 | 53.21747 | -2.41247 | 4996 ft | 217 kts | 281° |
| 2026-05-04 10:39 | 53.22364 | -2.43463 | 4703 ft | 211 kts | 316° |
| 2026-05-04 10:40 | 53.23616 | -2.44623 | 4396 ft | 208 kts | 350° |
| 2026-05-04 10:40 | 53.25055 | -2.44826 | 4066 ft | 208 kts | 359° |
| 2026-05-04 10:40 | 53.26470 | -2.44469 | 3764 ft | 208 kts | 28° |
| 2026-05-04 10:40 | 53.27517 | -2.42818 | 3461 ft | 209 kts | 50° |
| 2026-05-04 10:41 | 53.28419 | -2.40929 | 3267 ft | 205 kts | 50° |
| 2026-05-04 10:41 | 53.29299 | -2.39102 | 3147 ft | 198 kts | 50° |
| 2026-05-04 10:41 | 53.30139 | -2.37370 | 3042 ft | 185 kts | 50° |
| 2026-05-04 10:41 | 53.30927 | -2.35742 | 2782 ft | 179 kts | 50° |
| 2026-05-04 10:42 | 53.31672 | -2.34185 | 2537 ft | 160 kts | 50° |
| 2026-05-04 10:42 | 53.32328 | -2.32802 | 2287 ft | 146 kts | 51° |
| 2026-05-04 10:42 | 53.32937 | -2.31502 | 1973 ft | 139 kts | 51° |
| 2026-05-04 10:42 | 53.33532 | -2.30229 | 1675 ft | 150 kts | 51° |
| 2026-05-04 10:43 | 53.34270 | -2.28648 | 2017 ft | 186 kts | 51° |
| 2026-05-04 10:44 | 53.33186 | -2.14925 | 2264 ft | 218 kts | 163° |
| 2026-05-04 10:45 | 53.31673 | -2.14578 | 2157 ft | 219 kts | 182° |
| 2026-05-04 10:45 | 53.30107 | -2.15092 | 2088 ft | 247 kts | 201° |
| 2026-05-04 10:45 | 53.28499 | -2.16525 | 2271 ft | 270 kts | 214° |
| 2026-05-04 10:45 | 53.26913 | -2.17845 | 3045 ft | 239 kts | 199° |
| 2026-05-04 10:46 | 53.25482 | -2.18994 | 3289 ft | 223 kts | 221° |
| 2026-05-04 10:46 | 53.24398 | -2.20775 | 3359 ft | 220 kts | 229° |
| 2026-05-04 10:46 | 53.23394 | -2.22706 | 3367 ft | 218 kts | 238° |
| 2026-05-04 10:46 | 53.22900 | -2.25036 | 3373 ft | 214 kts | 265° |
| 2026-05-04 10:47 | 53.22788 | -2.27509 | 3373 ft | 213 kts | 269° |
| 2026-05-04 10:47 | 53.22730 | -2.29991 | 3373 ft | 214 kts | 270° |
| 2026-05-04 10:47 | 53.22681 | -2.32468 | 3375 ft | 214 kts | 270° |
| 2026-05-04 10:47 | 53.22634 | -2.34944 | 3372 ft | 213 kts | 270° |
| 2026-05-04 10:49 | 53.26408 | -2.45032 | 2524 ft | 203 kts | 46° |
| 2026-05-04 10:49 | 53.27313 | -2.43206 | 2246 ft | 205 kts | 50° |
| 2026-05-04 10:50 | 53.28191 | -2.41385 | 1967 ft | 196 kts | 50° |
| 2026-05-04 10:51 | 53.33173 | -2.31107 | 247 ft | 117 kts | 51° |
| 2026-05-04 10:52 | 53.33596 | -2.30240 | 239 ft | 59 kts | 50° |
| 2026-05-04 10:52 | 53.33803 | -2.29809 | 233 ft | 44 kts | 51° |
| 2026-05-04 10:52 | 53.33984 | -2.29424 | 233 ft | 40 kts | 52° |
| 2026-05-04 10:54 | 53.34808 | -2.28202 | 233 ft | 16 kts | 50° |
| 2026-05-04 10:54 | 53.34883 | -2.28045 | 233 ft | 19 kts | 52° |
| 2026-05-04 10:56 | 53.35321 | -2.28170 | 234 ft | 4 kts | 359° |
| 2026-05-04 10:56 | 53.35393 | -2.28163 | 233 ft | 8 kts | 4° |
| 2026-05-04 10:56 | 53.35431 | -2.28158 | 233 ft | 8 kts | 7° |
| 2026-05-04 10:57 | 53.35489 | -2.28125 | 235 ft | 6 kts | 32° |
| 2026-05-04 10:57 | 53.35518 | -2.28095 | 233 ft | 9 kts | 33° |
| 2026-05-04 10:57 | 53.35585 | -2.27983 | 233 ft | 14 kts | 53° |
| 2026-05-04 10:57 | 53.35629 | -2.27899 | 233 ft | 14 kts | 30° |
| 2026-05-04 10:58 | 53.35729 | -2.27880 | 233 ft | 15 kts | 6° |
| 2026-05-04 10:58 | 53.35842 | -2.27858 | 234 ft | 18 kts | 7° |
| 2026-05-04 10:58 | 53.35966 | -2.27865 | 233 ft | 18 kts | 328° |
| 2026-05-04 10:58 | 53.36060 | -2.28016 | 233 ft | 20 kts | 315° |
| 2026-05-04 10:59 | 53.36156 | -2.28159 | 233 ft | 16 kts | 345° |
| 2026-05-04 10:59 | 53.36257 | -2.28080 | 233 ft | 17 kts | 26° |
| 2026-05-04 10:59 | 53.36363 | -2.27982 | 233 ft | 19 kts | 45° |
| 2026-05-04 10:59 | 53.36384 | -2.27852 | 234 ft | 12 kts | 131° |
| 2026-05-04 11:00 | 53.36340 | -2.27744 | 233 ft | 11 kts | 107° |
| 2026-05-04 11:01 | 53.36395 | -2.27633 | 233 ft | 0 kts | 14° |